Time;durP1;ratioP1;P1;durP2;ratioP2;P2;SDS_P1;SDS_P2;PMS_P1;PMS_P2;Temp;Humidity;BMP_temperature;BMP_pressure;BME280_temperature;BME280_humidity;BME280_pressure;Samples;Min_cycle;Max_cycle;Signal;HPM_P1;HPM_P2
2022/11/09 00:00:42;;;;;;;1.70;1.20;;;15.40;98.20;;;;;;4973653;28;20873;-77
2022/11/09 00:03:09;;;;;;;1.53;1.00;;;15.40;98.20;;;;;;4987214;28;20553;-77
2022/11/09 00:05:37;;;;;;;1.50;1.00;;;15.30;98.20;;;;;;4974028;28;20553;-76
2022/11/09 00:08:05;;;;;;;1.50;1.00;;;15.30;98.20;;;;;;4992614;28;20511;-77
2022/11/09 00:10:33;;;;;;;1.77;1.67;;;15.30;98.20;;;;;;4971209;28;20557;-77
2022/11/09 00:13:01;;;;;;;1.60;1.00;;;15.30;98.20;;;;;;4991632;28;20707;-77
2022/11/09 00:15:28;;;;;;;1.50;1.00;;;15.30;98.20;;;;;;4991318;28;20465;-76
2022/11/09 00:17:55;;;;;;;1.50;1.00;;;15.30;98.20;;;;;;4994137;28;21012;-77
2022/11/09 00:20:22;;;;;;;1.60;1.20;;;15.20;98.20;;;;;;4990520;28;20871;-76
2022/11/09 00:22:49;;;;;;;1.57;1.00;;;15.20;98.20;;;;;;4980548;28;20485;-77
2022/11/09 00:25:17;;;;;;;1.50;1.00;;;15.20;98.20;;;;;;4970815;28;20469;-77
2022/11/09 00:27:44;;;;;;;1.57;1.00;;;15.10;98.20;;;;;;4975988;28;20544;-76
2022/11/09 00:30:13;;;;;;;1.53;1.00;;;15.10;98.20;;;;;;4970659;28;20484;-76
2022/11/09 00:32:40;;;;;;;1.50;0.90;;;15.10;98.20;;;;;;4993004;28;21303;-77
2022/11/09 00:35:07;;;;;;;1.60;1.10;;;15.10;98.20;;;;;;4987176;28;20562;-76
2022/11/09 00:37:34;;;;;;;1.50;1.00;;;15.00;98.20;;;;;;4982843;28;20476;-77
2022/11/09 00:40:01;;;;;;;1.53;0.93;;;15.00;98.20;;;;;;4973920;28;20477;-77
2022/11/09 00:42:28;;;;;;;1.50;1.00;;;15.00;98.20;;;;;;4999625;28;20490;-77
2022/11/09 00:44:55;;;;;;;1.50;1.00;;;15.00;98.20;;;;;;4994442;28;20469;-76
2022/11/09 00:47:23;;;;;;;1.53;1.00;;;15.00;98.20;;;;;;4990677;28;20483;-76
2022/11/09 00:49:50;;;;;;;1.60;1.03;;;14.90;98.20;;;;;;4993534;28;20471;-77
2022/11/09 00:52:17;;;;;;;1.50;1.07;;;14.90;98.20;;;;;;4979983;28;20873;-77
2022/11/09 00:54:44;;;;;;;1.50;1.00;;;14.90;98.20;;;;;;4989174;28;20461;-77
2022/11/09 00:57:12;;;;;;;1.50;0.90;;;14.90;98.20;;;;;;4990601;28;20484;-77
2022/11/09 00:59:39;;;;;;;1.57;1.00;;;14.90;98.20;;;;;;4994239;28;20519;-76
2022/11/09 01:02:06;;;;;;;1.50;1.00;;;14.90;98.20;;;;;;4982015;28;21076;-77
2022/11/09 01:04:34;;;;;;;1.53;1.00;;;14.90;98.20;;;;;;4998888;28;20504;-78
2022/11/09 01:07:01;;;;;;;1.53;1.00;;;14.90;98.20;;;;;;4982047;28;20805;-77
2022/11/09 01:09:28;;;;;;;1.50;1.00;;;14.80;98.20;;;;;;4981708;28;20482;-77
2022/11/09 01:11:55;;;;;;;1.53;1.00;;;14.80;98.20;;;;;;4985187;28;20486;-77
2022/11/09 01:14:22;;;;;;;1.50;1.00;;;14.80;98.20;;;;;;4999556;28;20465;-76
2022/11/09 01:16:49;;;;;;;1.50;1.00;;;14.80;98.20;;;;;;4990186;28;20475;-77
2022/11/09 01:19:16;;;;;;;1.57;1.00;;;14.80;98.20;;;;;;4999996;28;20468;-77
2022/11/09 01:21:44;;;;;;;1.53;1.00;;;14.70;98.20;;;;;;4983054;28;20484;-77
2022/11/09 01:24:11;;;;;;;1.57;1.00;;;14.70;98.20;;;;;;4970879;28;20514;-77
2022/11/09 01:26:38;;;;;;;1.57;1.00;;;14.70;98.20;;;;;;4983921;28;20488;-77
2022/11/09 01:29:05;;;;;;;1.60;1.00;;;14.70;98.20;;;;;;5001925;28;20488;-77
2022/11/09 01:31:31;;;;;;;1.57;1.00;;;14.70;98.20;;;;;;4981553;28;21019;-77
2022/11/09 01:33:58;;;;;;;1.50;1.00;;;14.70;98.20;;;;;;4988814;28;20505;-75
2022/11/09 01:36:26;;;;;;;1.50;1.00;;;14.70;98.20;;;;;;4977740;28;20498;-76
2022/11/09 01:38:54;;;;;;;1.53;1.00;;;14.70;98.20;;;;;;4986040;28;20513;-76
2022/11/09 01:41:24;;;;;;;1.60;1.10;;;14.60;98.20;;;;;;4975375;28;20474;-76
2022/11/09 01:44:08;;;;;;;1.53;1.00;;;14.60;98.20;;;;;;4979532;28;20533;-77
2022/11/09 01:46:38;;;;;;;1.57;1.00;;;14.60;98.20;;;;;;4983510;28;20476;-76
2022/11/09 01:49:12;;;;;;;1.57;1.00;;;14.60;98.20;;;;;;5002460;28;20581;-76
2022/11/09 01:51:44;;;;;;;1.60;1.00;;;14.60;98.20;;;;;;4983530;28;20852;-76
2022/11/09 01:54:15;;;;;;;1.57;1.07;;;14.60;98.20;;;;;;4971711;28;20461;-76
2022/11/09 01:56:44;;;;;;;1.53;1.00;;;14.50;98.20;;;;;;4987866;28;20502;-77
2022/11/09 01:59:15;;;;;;;1.60;1.10;;;14.50;98.20;;;;;;5000433;28;20615;-76
2022/11/09 02:01:42;;;;;;;1.53;1.00;;;14.50;98.20;;;;;;4987435;28;20766;-76
2022/11/09 02:04:13;;;;;;;1.53;1.00;;;14.50;98.20;;;;;;5001171;28;20522;-76
2022/11/09 02:06:40;;;;;;;1.50;1.00;;;14.50;98.20;;;;;;4974807;28;20543;-76
2022/11/09 02:09:12;;;;;;;1.60;1.00;;;14.50;98.20;;;;;;4975854;28;20487;-76
2022/11/09 02:11:41;;;;;;;1.53;1.00;;;14.50;98.20;;;;;;4969802;28;20574;-76
2022/11/09 02:14:08;;;;;;;1.50;0.90;;;14.50;98.20;;;;;;5009116;28;20469;-75
2022/11/09 02:16:35;;;;;;;1.53;1.00;;;14.50;98.20;;;;;;4966880;28;20489;-75
2022/11/09 02:19:02;;;;;;;1.57;1.03;;;14.50;98.20;;;;;;4979226;28;21011;-76
2022/11/09 02:21:32;;;;;;;1.57;1.10;;;14.50;98.20;;;;;;4973874;28;20499;-76
2022/11/09 02:24:00;;;;;;;1.50;1.00;;;14.50;98.20;;;;;;4992762;28;20494;-76
2022/11/09 02:26:31;;;;;;;2.37;1.47;;;14.40;98.20;;;;;;4984292;28;20514;-76
2022/11/09 02:28:59;;;;;;;1.60;1.00;;;14.40;98.20;;;;;;5003652;28;20690;-77
2022/11/09 02:31:31;;;;;;;1.53;1.00;;;14.40;98.20;;;;;;4983345;28;20481;-76
2022/11/09 02:34:04;;;;;;;1.57;1.00;;;14.40;98.20;;;;;;4975048;28;20864;-76
2022/11/09 02:36:32;;;;;;;1.57;1.00;;;14.40;98.20;;;;;;4974631;28;20484;-76
2022/11/09 02:38:59;;;;;;;1.50;1.10;;;14.40;98.20;;;;;;4987060;28;21156;-77
2022/11/09 02:41:27;;;;;;;1.50;1.00;;;14.30;98.20;;;;;;4978058;28;20479;-76
2022/11/09 02:43:55;;;;;;;1.50;1.00;;;14.30;98.20;;;;;;5014069;28;21018;-77
2022/11/09 02:46:25;;;;;;;1.57;1.00;;;14.30;98.20;;;;;;4987100;28;20480;-76
2022/11/09 02:48:52;;;;;;;1.60;1.10;;;14.30;98.20;;;;;;5004720;28;20489;-76
2022/11/09 02:51:18;;;;;;;1.50;1.00;;;14.20;98.20;;;;;;4983886;28;20473;-75
2022/11/09 02:53:47;;;;;;;1.53;0.97;;;14.20;98.20;;;;;;4991406;28;20481;-75
2022/11/09 02:56:14;;;;;;;1.50;0.90;;;14.20;98.20;;;;;;4958820;28;20484;-76
2022/11/09 02:58:40;;;;;;;1.53;1.00;;;14.20;98.20;;;;;;4992137;28;20546;-76
2022/11/09 03:01:07;;;;;;;1.53;1.00;;;14.20;98.20;;;;;;4968213;28;20485;-76
2022/11/09 03:06:03;;;;;;;1.57;1.00;;;14.20;98.20;;;;;;4944846;28;20489;-76
2022/11/09 03:08:30;;;;;;;1.53;1.00;;;14.20;98.20;;;;;;4979522;28;20487;-76
2022/11/09 03:11:00;;;;;;;2.90;1.97;;;14.20;98.20;;;;;;4945762;28;20471;-76
2022/11/09 03:13:27;;;;;;;1.57;1.10;;;14.20;98.20;;;;;;4994062;28;20489;-77
2022/11/09 03:15:54;;;;;;;1.60;1.10;;;14.20;98.20;;;;;;4978766;28;20476;-77
2022/11/09 03:18:20;;;;;;;1.50;1.00;;;14.20;98.20;;;;;;4998552;28;20825;-77
2022/11/09 03:20:47;;;;;;;1.57;1.10;;;14.30;98.20;;;;;;4983985;28;20495;-75
2022/11/09 03:23:14;;;;;;;1.50;1.00;;;14.30;98.20;;;;;;5005413;28;20504;-77
2022/11/09 03:25:41;;;;;;;1.50;1.00;;;14.30;98.20;;;;;;4976409;28;20466;-77
2022/11/09 03:28:09;;;;;;;1.50;1.00;;;14.30;98.20;;;;;;4994622;28;20491;-76
2022/11/09 03:30:35;;;;;;;1.57;1.00;;;14.40;98.20;;;;;;4991073;28;20500;-76
2022/11/09 03:33:08;;;;;;;1.53;1.00;;;14.40;98.20;;;;;;4977204;28;20571;-76
2022/11/09 03:35:35;;;;;;;1.53;1.10;;;14.40;98.20;;;;;;4982739;28;20461;-79
2022/11/09 03:38:02;;;;;;;1.50;1.00;;;14.40;98.20;;;;;;4991119;28;20884;-78
2022/11/09 03:40:29;;;;;;;1.57;1.00;;;14.40;98.20;;;;;;4995703;28;20469;-78
2022/11/09 03:42:55;;;;;;;1.50;0.90;;;14.40;98.20;;;;;;4999243;28;20492;-79
2022/11/09 03:45:24;;;;;;;1.60;1.10;;;14.40;98.20;;;;;;4995793;28;20843;-78
2022/11/09 03:47:51;;;;;;;1.53;1.00;;;14.40;98.20;;;;;;4999054;28;20852;-77
2022/11/09 03:50:18;;;;;;;1.50;1.00;;;14.40;98.20;;;;;;4976116;28;20461;-78
2022/11/09 03:52:45;;;;;;;1.60;1.00;;;14.40;98.20;;;;;;4995939;28;20492;-77
2022/11/09 03:55:13;;;;;;;1.60;1.07;;;14.50;98.20;;;;;;4979171;28;20848;-79
2022/11/09 03:57:40;;;;;;;1.50;1.00;;;14.50;98.20;;;;;;4991004;28;20484;-77
2022/11/09 04:00:08;;;;;;;1.53;0.93;;;14.40;98.20;;;;;;4987243;28;20461;-78
2022/11/09 04:02:36;;;;;;;1.57;1.00;;;14.40;98.20;;;;;;4994581;28;20479;-77
2022/11/09 04:05:03;;;;;;;1.53;1.00;;;14.40;98.20;;;;;;4995284;28;20487;-78
2022/11/09 04:07:29;;;;;;;1.53;1.00;;;14.40;98.20;;;;;;4997726;28;20480;-78
2022/11/09 04:09:56;;;;;;;1.50;1.00;;;14.40;98.20;;;;;;4996238;28;20988;-78
2022/11/09 04:12:23;;;;;;;1.53;1.00;;;14.40;98.20;;;;;;4996822;28;20832;-78
2022/11/09 04:14:50;;;;;;;1.53;1.10;;;14.40;98.20;;;;;;4996422;28;20457;-79
2022/11/09 04:17:16;;;;;;;1.53;1.03;;;14.40;98.20;;;;;;4991074;28;20565;-79
2022/11/09 04:19:45;;;;;;;1.53;1.00;;;14.40;98.20;;;;;;4998840;28;20468;-79
2022/11/09 04:22:11;;;;;;;1.50;1.00;;;14.40;98.20;;;;;;4995588;28;20484;-79
2022/11/09 04:24:38;;;;;;;1.50;1.00;;;14.40;98.20;;;;;;4997416;28;20476;-80
2022/11/09 04:27:05;;;;;;;1.50;1.00;;;14.40;98.20;;;;;;4994413;28;20636;-78
2022/11/09 04:29:32;;;;;;;1.50;1.10;;;14.40;98.20;;;;;;5002175;28;20496;-79
2022/11/09 04:31:59;;;;;;;1.57;0.97;;;14.50;98.20;;;;;;4989809;28;21008;-77
2022/11/09 04:34:25;;;;;;;1.53;1.00;;;14.50;98.20;;;;;;4999498;28;20485;-79
2022/11/09 04:36:53;;;;;;;1.50;1.00;;;14.50;98.20;;;;;;4991432;28;20480;-79
2022/11/09 04:39:20;;;;;;;1.60;1.20;;;14.50;98.20;;;;;;5001729;28;21009;-78
2022/11/09 04:41:47;;;;;;;1.53;1.00;;;14.50;98.20;;;;;;4990774;28;20939;-78
2022/11/09 04:44:14;;;;;;;1.50;0.90;;;14.50;98.20;;;;;;5000216;28;20476;-79
2022/11/09 04:46:41;;;;;;;1.50;1.00;;;14.50;98.20;;;;;;4990679;28;20563;-78
2022/11/09 04:49:08;;;;;;;1.50;1.00;;;14.50;98.20;;;;;;5003397;28;20871;-79
2022/11/09 04:51:35;;;;;;;1.60;1.00;;;14.50;98.20;;;;;;4990463;28;20491;-78
2022/11/09 04:54:03;;;;;;;1.57;1.00;;;14.50;98.20;;;;;;5002583;28;20476;-78
2022/11/09 04:56:29;;;;;;;1.60;1.10;;;14.50;98.20;;;;;;4987364;28;21024;-79
2022/11/09 04:58:56;;;;;;;1.53;1.00;;;14.50;98.20;;;;;;5003006;28;20460;-76
2022/11/09 05:01:23;;;;;;;1.50;1.00;;;14.50;98.20;;;;;;4987314;28;20554;-81
2022/11/09 05:03:50;;;;;;;1.50;1.00;;;14.50;98.20;;;;;;5003427;28;20485;-77
2022/11/09 05:06:32;;;;;;;1.50;0.93;;;14.50;98.20;;;;;;4984819;28;20480;-80
2022/11/09 05:09:00;;;;;;;1.50;1.00;;;14.50;98.20;;;;;;5001488;28;20485;-80
2022/11/09 05:11:29;;;;;;;1.50;0.90;;;14.40;98.20;;;;;;4987276;28;20479;-81
2022/11/09 05:13:55;;;;;;;1.50;1.00;;;14.40;98.20;;;;;;5000556;28;20484;-81
2022/11/09 05:16:23;;;;;;;1.57;1.00;;;14.40;98.20;;;;;;4987790;28;20479;-78
2022/11/09 05:18:50;;;;;;;1.57;1.00;;;14.40;98.20;;;;;;5006316;28;20469;-81
2022/11/09 05:21:17;;;;;;;1.53;1.00;;;14.40;98.20;;;;;;4986281;28;20491;-79
2022/11/09 05:23:59;;;;;;;1.53;0.93;;;14.30;98.20;;;;;;5000193;28;20480;-79
2022/11/09 05:26:29;;;;;;;1.53;1.03;;;14.30;98.20;;;;;;4980713;28;20479;-77
2022/11/09 05:28:57;;;;;;;1.60;1.10;;;14.40;98.20;;;;;;4988528;28;20521;-78
2022/11/09 05:31:24;;;;;;;1.53;1.00;;;14.40;98.20;;;;;;4971689;28;20487;-78
2022/11/09 05:33:52;;;;;;;1.57;1.00;;;14.40;98.20;;;;;;4991474;28;20490;-79
2022/11/09 05:36:19;;;;;;;1.50;1.00;;;14.30;98.20;;;;;;4983636;28;20480;-76
2022/11/09 05:38:47;;;;;;;1.57;1.00;;;14.30;98.20;;;;;;4993120;28;20900;-76
2022/11/09 05:41:14;;;;;;;1.57;1.00;;;14.20;98.20;;;;;;4991089;28;20494;-75
2022/11/09 05:43:43;;;;;;;1.60;1.00;;;14.10;98.20;;;;;;5014895;28;20849;-78
2022/11/09 05:46:10;;;;;;;1.57;1.00;;;14.10;98.20;;;;;;4992716;28;20491;-78
2022/11/09 05:48:37;;;;;;;1.50;1.00;;;14.00;98.20;;;;;;5004149;28;20500;-77
2022/11/09 05:51:05;;;;;;;1.50;0.93;;;14.00;98.20;;;;;;4981675;28;20468;-78
2022/11/09 05:53:32;;;;;;;1.57;1.00;;;14.00;98.20;;;;;;4997543;28;20564;-77
2022/11/09 05:56:03;;;;;;;1.60;1.10;;;14.00;98.20;;;;;;4981075;28;20465;-79
2022/11/09 05:58:31;;;;;;;1.57;1.00;;;14.00;98.20;;;;;;4999587;28;20452;-79
2022/11/09 06:01:00;;;;;;;1.53;1.00;;;13.90;98.20;;;;;;4980581;28;20489;-76
2022/11/09 06:03:26;;;;;;;1.53;1.00;;;13.90;98.20;;;;;;4980135;28;21007;-79
2022/11/09 06:05:53;;;;;;;1.50;1.00;;;13.90;98.20;;;;;;4973491;28;21237;-78
2022/11/09 06:08:20;;;;;;;1.53;1.00;;;13.80;98.20;;;;;;4996745;28;20481;-77
2022/11/09 06:10:47;;;;;;;1.50;1.00;;;13.80;98.20;;;;;;4981558;28;20466;-78
2022/11/09 06:13:14;;;;;;;1.53;0.97;;;13.80;98.20;;;;;;5002923;28;20489;-77
2022/11/09 06:15:40;;;;;;;1.53;1.00;;;13.70;98.20;;;;;;4979338;28;20976;-76
2022/11/09 06:18:09;;;;;;;1.60;1.10;;;13.70;98.20;;;;;;4988189;28;20802;-78
2022/11/09 06:20:35;;;;;;;1.53;1.00;;;13.70;98.20;;;;;;4991822;28;20480;-77
2022/11/09 06:23:02;;;;;;;1.60;1.00;;;13.60;98.20;;;;;;4982346;28;20496;-77
2022/11/09 06:25:31;;;;;;;1.53;1.00;;;13.60;98.20;;;;;;4992638;28;20492;-78
2022/11/09 06:27:58;;;;;;;1.50;1.00;;;13.60;98.20;;;;;;4989039;28;20797;-79
2022/11/09 06:30:25;;;;;;;1.50;1.00;;;13.50;98.20;;;;;;4990789;28;20571;-78
2022/11/09 06:32:57;;;;;;;1.50;1.00;;;13.50;98.20;;;;;;4982985;28;20487;-78
2022/11/09 06:35:25;;;;;;;1.50;1.00;;;13.50;98.20;;;;;;4989206;28;20471;-78
2022/11/09 06:37:55;;;;;;;1.53;1.00;;;13.50;98.20;;;;;;4994661;28;20491;-78
2022/11/09 06:40:22;;;;;;;1.50;1.00;;;13.50;98.20;;;;;;4990603;28;20461;-78
2022/11/09 06:42:49;;;;;;;1.57;1.00;;;13.50;98.20;;;;;;4981661;28;20869;-77
2022/11/09 06:45:15;;;;;;;1.50;1.00;;;13.50;98.20;;;;;;4986677;28;20465;-77
2022/11/09 06:47:42;;;;;;;1.53;1.00;;;13.50;98.20;;;;;;4986883;28;20492;-78
2022/11/09 06:50:10;;;;;;;1.57;1.00;;;13.50;98.20;;;;;;4979935;28;20489;-77
2022/11/09 06:52:38;;;;;;;1.53;1.00;;;13.50;98.20;;;;;;4981640;28;20910;-78
2022/11/09 06:55:07;;;;;;;1.50;1.00;;;13.50;98.20;;;;;;4990248;28;20473;-79
2022/11/09 06:57:34;;;;;;;1.50;1.00;;;13.50;98.20;;;;;;4993119;28;21029;-77
2022/11/09 07:00:00;;;;;;;1.53;1.10;;;13.50;98.20;;;;;;4992681;28;20457;-78
2022/11/09 07:02:27;;;;;;;1.57;1.00;;;13.40;98.20;;;;;;4990583;28;21019;-77
2022/11/09 07:04:54;;;;;;;1.57;1.03;;;13.50;98.20;;;;;;4990516;28;21009;-79
2022/11/09 07:07:21;;;;;;;1.60;1.10;;;13.50;98.20;;;;;;4989749;28;20480;-78
2022/11/09 07:09:49;;;;;;;1.50;1.00;;;13.50;98.20;;;;;;4975472;28;20589;-78
2022/11/09 07:12:16;;;;;;;1.53;1.00;;;13.50;98.20;;;;;;4977112;28;20489;-78
2022/11/09 07:14:42;;;;;;;1.57;1.00;;;13.50;98.20;;;;;;4990554;28;20461;-78
2022/11/09 07:17:09;;;;;;;1.57;1.00;;;13.50;98.20;;;;;;4983713;28;20488;-78
2022/11/09 07:19:36;;;;;;;1.57;1.10;;;13.50;98.20;;;;;;4980243;28;20468;-78
2022/11/09 07:22:03;;;;;;;1.53;1.00;;;13.50;98.20;;;;;;4975996;28;20481;-77
2022/11/09 07:24:29;;;;;;;1.53;1.00;;;13.40;98.20;;;;;;4976688;28;20547;-77
2022/11/09 07:26:57;;;;;;;1.50;1.00;;;13.40;98.20;;;;;;4982154;28;20484;-77
2022/11/09 07:29:24;;;;;;;1.53;1.00;;;13.40;98.20;;;;;;4993359;28;20484;-77
2022/11/09 07:31:51;;;;;;;1.53;1.00;;;13.30;98.20;;;;;;4987367;28;20480;-77
2022/11/09 07:34:18;;;;;;;1.53;1.00;;;13.30;98.20;;;;;;4995732;28;20488;-77
2022/11/09 07:36:44;;;;;;;1.50;1.00;;;13.30;98.20;;;;;;4977135;28;20488;-77
2022/11/09 07:39:11;;;;;;;1.50;1.00;;;13.30;98.20;;;;;;4990310;28;20487;-77
2022/11/09 07:41:38;;;;;;;1.60;1.00;;;13.20;98.20;;;;;;4979697;28;20489;-77
2022/11/09 07:44:06;;;;;;;1.50;1.00;;;13.20;98.20;;;;;;4990964;28;20485;-77
2022/11/09 07:46:34;;;;;;;1.60;1.10;;;13.20;98.20;;;;;;4982435;28;20484;-77
2022/11/09 07:49:01;;;;;;;1.57;1.00;;;13.20;98.20;;;;;;4998378;28;20496;-76
2022/11/09 07:51:27;;;;;;;1.50;1.00;;;13.20;98.20;;;;;;4980729;28;20504;-79
2022/11/09 07:53:54;;;;;;;1.50;1.03;;;13.20;98.20;;;;;;4984220;28;20486;-76
2022/11/09 07:56:21;;;;;;;1.53;1.03;;;13.30;98.20;;;;;;4965471;28;20884;-77
2022/11/09 07:58:49;;;;;;;1.60;1.10;;;13.30;98.20;;;;;;4981826;28;20476;-80
2022/11/09 08:01:20;;;;;;;1.53;1.00;;;13.30;98.20;;;;;;4967726;28;20900;-78
2022/11/09 08:03:51;;;;;;;1.50;1.00;;;13.40;98.20;;;;;;4996350;28;20523;-78
2022/11/09 08:06:18;;;;;;;1.53;1.00;;;13.40;98.20;;;;;;4976318;28;20472;-77
2022/11/09 08:08:44;;;;;;;1.57;1.00;;;13.50;98.20;;;;;;4982617;28;20902;-76
2022/11/09 08:11:11;;;;;;;1.60;1.00;;;13.50;98.20;;;;;;4980488;28;20479;-77
2022/11/09 08:13:38;;;;;;;1.57;1.10;;;13.60;98.20;;;;;;4996041;28;20487;-77
2022/11/09 08:16:05;;;;;;;1.53;1.00;;;13.60;98.20;;;;;;4978792;28;20468;-77
2022/11/09 08:18:34;;;;;;;1.50;1.10;;;13.70;98.20;;;;;;4984875;28;20461;-77
2022/11/09 08:21:03;;;;;;;1.53;1.00;;;13.80;98.20;;;;;;4980879;28;20461;-76
2022/11/09 08:23:30;;;;;;;1.53;1.00;;;13.80;98.20;;;;;;5001369;28;20485;-77
2022/11/09 08:25:56;;;;;;;1.57;1.00;;;13.90;98.20;;;;;;4982043;28;20464;-78
2022/11/09 08:28:23;;;;;;;1.50;1.00;;;14.00;98.20;;;;;;4998322;28;20461;-77
2022/11/09 08:30:57;;;;;;;1.50;1.00;;;14.10;98.20;;;;;;4978707;28;21080;-77
2022/11/09 08:33:24;;;;;;;1.50;0.90;;;14.20;98.20;;;;;;5000912;28;20580;-77
2022/11/09 08:35:52;;;;;;;1.53;1.00;;;14.30;98.20;;;;;;4978845;28;20461;-77
2022/11/09 08:38:19;;;;;;;1.50;1.00;;;14.40;98.20;;;;;;4995324;28;21130;-77
2022/11/09 08:40:46;;;;;;;1.57;1.00;;;14.50;98.20;;;;;;4980113;28;20916;-76
2022/11/09 08:43:13;;;;;;;1.53;1.00;;;14.50;98.20;;;;;;4987201;28;20483;-77
2022/11/09 08:45:40;;;;;;;1.53;1.00;;;14.60;98.20;;;;;;4987877;28;20835;-79
2022/11/09 08:48:10;;;;;;;1.50;1.00;;;14.70;98.20;;;;;;4993661;28;20493;-78
2022/11/09 08:50:37;;;;;;;1.50;1.00;;;14.80;98.20;;;;;;4986702;28;20500;-78
2022/11/09 08:53:06;;;;;;;1.57;1.03;;;14.90;98.20;;;;;;4985728;28;21675;-80
2022/11/09 08:55:33;;;;;;;1.53;1.00;;;15.00;98.20;;;;;;4985235;28;20979;-79
2022/11/09 08:58:02;;;;;;;1.60;1.00;;;15.10;98.20;;;;;;4976554;28;20493;-78
2022/11/09 09:00:29;;;;;;;1.53;1.00;;;15.20;98.20;;;;;;4973138;28;21058;-78
2022/11/09 09:02:56;;;;;;;1.60;1.10;;;15.30;98.20;;;;;;4991919;28;20582;-78
2022/11/09 09:05:23;;;;;;;1.53;1.00;;;15.40;98.20;;;;;;4991035;28;20905;-78
2022/11/09 09:07:50;;;;;;;1.57;1.00;;;15.50;98.20;;;;;;4980245;28;20474;-78
2022/11/09 09:10:18;;;;;;;1.50;1.00;;;15.60;98.20;;;;;;4972094;28;20887;-78
2022/11/09 09:12:45;;;;;;;1.57;1.00;;;15.60;98.20;;;;;;4992762;28;20488;-78
2022/11/09 09:15:12;;;;;;;1.57;1.00;;;15.70;98.20;;;;;;4989081;28;20461;-78
2022/11/09 09:17:38;;;;;;;1.80;1.43;;;15.70;98.20;;;;;;4986680;28;20483;-78
2022/11/09 09:20:06;;;;;;;1.50;0.90;;;15.80;98.20;;;;;;4978858;28;20457;-77
2022/11/09 09:22:33;;;;;;;1.60;1.00;;;15.90;98.20;;;;;;4980302;28;21085;-78
2022/11/09 09:25:00;;;;;;;1.53;0.93;;;15.90;98.20;;;;;;4990323;28;20990;-78
2022/11/09 09:27:29;;;;;;;1.57;0.90;;;16.00;98.20;;;;;;4990495;28;20484;-78
2022/11/09 09:30:02;;;;;;;1.57;1.00;;;16.10;98.20;;;;;;4990552;28;20601;-80
2022/11/09 09:32:29;;;;;;;1.50;1.00;;;16.20;98.20;;;;;;4986776;28;20535;-77
2022/11/09 09:34:56;;;;;;;1.60;1.00;;;16.30;98.20;;;;;;4994097;28;20542;-77
2022/11/09 09:37:23;;;;;;;1.53;0.90;;;16.40;98.20;;;;;;4986888;28;20638;-78
2022/11/09 09:39:50;;;;;;;1.60;1.00;;;16.50;98.20;;;;;;4978167;28;20508;-78
2022/11/09 09:42:20;;;;;;;1.57;1.00;;;16.50;98.20;;;;;;4985170;28;20488;-79
2022/11/09 09:44:54;;;;;;;1.57;0.90;;;16.60;98.20;;;;;;4978643;28;20504;-79
2022/11/09 09:47:27;;;;;;;1.53;0.90;;;16.60;98.20;;;;;;4974118;28;21043;-79
2022/11/09 09:49:58;;;;;;;1.53;1.00;;;16.60;98.20;;;;;;4974119;28;20497;-78
2022/11/09 09:52:34;;;;;;;1.57;1.00;;;16.50;98.20;;;;;;4983340;28;20484;-78
2022/11/09 09:55:08;;;;;;;1.50;0.90;;;16.50;98.20;;;;;;4976659;28;21037;-77
2022/11/09 09:57:36;;;;;;;1.50;0.93;;;16.30;98.20;;;;;;4980305;28;20486;-79
2022/11/09 10:00:08;;;;;;;1.50;1.00;;;16.30;98.20;;;;;;4972571;28;20462;-77
2022/11/09 10:02:36;;;;;;;1.60;1.00;;;16.20;98.20;;;;;;4987771;28;20483;-78
2022/11/09 10:05:08;;;;;;;1.50;0.97;;;16.10;98.20;;;;;;4994120;28;20817;-79
2022/11/09 10:07:42;;;;;;;1.57;1.00;;;16.10;98.20;;;;;;4975153;28;20472;-79
2022/11/09 10:10:21;;;;;;;1.60;0.90;;;16.10;98.20;;;;;;4980945;28;20588;-79
2022/11/09 10:13:07;;;;;;;1.57;1.00;;;16.10;98.20;;;;;;4974955;28;20484;-78
2022/11/09 10:15:45;;;;;;;1.50;1.00;;;16.10;98.20;;;;;;4992120;28;20460;-76
2022/11/09 10:18:25;;;;;;;1.50;1.00;;;16.10;98.20;;;;;;4980947;28;20546;-78
2022/11/09 10:21:02;;;;;;;1.57;1.00;;;16.10;98.20;;;;;;4983848;28;20461;-80
2022/11/09 10:23:45;;;;;;;1.53;1.00;;;16.00;98.20;;;;;;5000564;28;20480;-80
2022/11/09 10:26:19;;;;;;;1.50;0.90;;;16.10;98.20;;;;;;4985571;28;20561;-79
2022/11/09 10:28:50;;;;;;;1.50;1.00;;;16.10;98.20;;;;;;4999225;28;20545;-78
2022/11/09 10:31:20;;;;;;;1.53;1.00;;;16.20;98.20;;;;;;4985558;28;20488;-80
2022/11/09 10:33:53;;;;;;;1.70;1.20;;;16.30;98.20;;;;;;4999227;28;20480;-78
2022/11/09 10:36:24;;;;;;;1.50;1.00;;;16.40;98.20;;;;;;4986392;28;20484;-78
2022/11/09 10:38:53;;;;;;;1.53;0.90;;;16.50;98.20;;;;;;5001892;28;20465;-80
2022/11/09 10:41:27;;;;;;;1.57;1.00;;;16.50;98.20;;;;;;4978989;28;20519;-80
2022/11/09 10:43:54;;;;;;;1.57;0.90;;;16.50;98.20;;;;;;4988544;28;20489;-79
2022/11/09 10:46:23;;;;;;;1.57;0.90;;;16.50;98.20;;;;;;4981969;28;20481;-79
2022/11/09 10:48:50;;;;;;;1.50;0.90;;;16.60;98.20;;;;;;4993275;28;20457;-78
2022/11/09 10:51:33;;;;;;;1.53;0.93;;;16.70;98.20;;;;;;4969210;28;20586;-79
2022/11/09 10:54:20;;;;;;;1.53;0.90;;;16.80;98.20;;;;;;4993677;28;20481;-77
2022/11/09 10:56:50;;;;;;;1.57;0.90;;;16.90;97.00;;;;;;4988222;28;20484;-78
2022/11/09 10:59:44;;;;;;;1.50;1.00;;;17.00;97.30;;;;;;4995866;28;20469;-78
2022/11/09 11:02:41;;;;;;;1.60;1.20;;;17.10;96.50;;;;;;4985073;28;20496;-78
2022/11/09 11:05:33;;;;;;;1.53;0.90;;;17.30;96.10;;;;;;4992932;28;20500;-77
2022/11/09 11:08:22;;;;;;;1.53;1.00;;;17.40;95.60;;;;;;4983605;28;21051;-77
2022/11/09 11:10:49;;;;;;;1.50;0.90;;;17.30;94.60;;;;;;4978642;28;20501;-77
2022/11/09 11:13:22;;;;;;;1.50;1.00;;;17.30;95.20;;;;;;4991482;28;20485;-78
2022/11/09 11:15:50;;;;;;;1.50;1.00;;;17.40;95.80;;;;;;4982934;28;20468;-79
2022/11/09 11:18:22;;;;;;;1.57;1.00;;;17.40;94.30;;;;;;4991385;28;20519;-78
2022/11/09 11:21:03;;;;;;;1.57;1.00;;;17.30;93.40;;;;;;4981896;28;20457;-78
2022/11/09 11:23:35;;;;;;;1.53;1.00;;;17.30;93.10;;;;;;5006287;28;20539;-78
2022/11/09 11:26:24;;;;;;;1.50;1.00;;;17.20;92.40;;;;;;4970879;28;20462;-79
2022/11/09 11:28:57;;;;;;;1.60;1.00;;;17.10;94.30;;;;;;4994671;28;21013;-80
2022/11/09 11:31:24;;;;;;;1.50;0.90;;;17.00;93.00;;;;;;4982556;28;20867;-79
2022/11/09 11:33:53;;;;;;;1.50;0.90;;;17.00;92.70;;;;;;4984314;28;20498;-81
2022/11/09 11:36:27;;;;;;;1.50;0.90;;;16.90;92.60;;;;;;4999932;23;20475;-77
2022/11/09 11:39:01;;;;;;;1.50;0.90;;;16.90;94.20;;;;;;5013105;28;20751;-76
2022/11/09 11:41:48;;;;;;;1.50;0.90;;;16.90;94.10;;;;;;4999242;28;20480;-76
2022/11/09 11:44:26;;;;;;;1.53;0.90;;;17.00;94.40;;;;;;5015830;28;20456;-76
2022/11/09 11:47:01;;;;;;;1.53;0.90;;;17.00;93.10;;;;;;4986912;28;20484;-76
2022/11/09 11:50:02;;;;;;;1.50;0.93;;;17.10;93.90;;;;;;4992068;28;20464;-76
2022/11/09 11:52:40;;;;;;;1.53;1.00;;;17.10;93.10;;;;;;4989166;28;20559;-76
2022/11/09 11:55:22;;;;;;;1.50;0.90;;;17.20;93.40;;;;;;4987625;28;20488;-76
2022/11/09 11:58:02;;;;;;;1.53;0.90;;;17.20;93.10;;;;;;4995882;28;20659;-76
2022/11/09 12:01:12;;;;;;;;;;;;;;;;;;;;;
2022/11/09 12:04:13;;;;;;;1.53;0.90;;;17.10;91.40;;;;;;4964944;28;20609;-77
2022/11/09 12:06:54;;;;;;;1.50;1.00;;;17.00;91.20;;;;;;4968960;28;20510;-76
2022/11/09 12:09:37;;;;;;;1.57;1.00;;;17.00;91.40;;;;;;4993872;28;20457;-77
2022/11/09 12:12:16;;;;;;;1.50;1.00;;;17.10;89.90;;;;;;4977279;28;20795;-77
2022/11/09 12:14:56;;;;;;;1.50;1.00;;;17.00;90.90;;;;;;4987098;28;20481;-77
2022/11/09 12:17:31;;;;;;;1.50;0.90;;;17.10;91.30;;;;;;4986170;28;20480;-76
2022/11/09 12:20:15;;;;;;;1.50;0.90;;;17.10;91.90;;;;;;4985475;28;20969;-77
2022/11/09 12:22:55;;;;;;;1.60;1.00;;;17.10;92.90;;;;;;4987048;28;20570;-77
2022/11/09 12:25:27;;;;;;;1.50;0.90;;;17.10;90.80;;;;;;4979182;28;20508;-76
2022/11/09 12:28:08;;;;;;;1.50;0.90;;;17.00;91.40;;;;;;4987406;28;20495;-76
2022/11/09 12:30:50;;;;;;;1.90;1.70;;;17.00;91.80;;;;;;4983420;28;20524;-75
2022/11/09 12:33:26;;;;;;;1.50;0.90;;;17.00;92.10;;;;;;4975239;28;20601;-75
2022/11/09 12:35:57;;;;;;;3.00;1.20;;;17.00;90.60;;;;;;4975280;28;20901;-76
2022/11/09 12:38:31;;;;;;;1.50;0.90;;;17.00;90.60;;;;;;4980158;28;20965;-75
2022/11/09 12:41:04;;;;;;;1.57;1.00;;;16.90;90.10;;;;;;4971999;28;20552;-76
2022/11/09 12:43:39;;;;;;;1.50;0.90;;;16.80;90.10;;;;;;5002279;28;20479;-75
2022/11/09 12:46:07;;;;;;;1.53;1.00;;;16.70;91.20;;;;;;4978721;28;20492;-75
2022/11/09 12:48:35;;;;;;;1.57;1.00;;;16.70;91.40;;;;;;4996722;28;20465;-76
2022/11/09 12:51:05;;;;;;;1.50;0.90;;;16.60;91.90;;;;;;4973063;28;21119;-76
2022/11/09 12:53:35;;;;;;;1.60;1.10;;;16.60;91.80;;;;;;4999079;28;20540;-75
2022/11/09 12:56:08;;;;;;;1.50;0.97;;;16.50;91.70;;;;;;4973569;28;20910;-76
2022/11/09 12:58:38;;;;;;;1.50;0.97;;;16.50;91.90;;;;;;4978287;28;20469;-75
2022/11/09 13:01:06;;;;;;;1.50;0.90;;;16.50;91.90;;;;;;4973355;28;20461;-75
2022/11/09 13:03:36;;;;;;;1.50;1.00;;;16.50;91.60;;;;;;4976688;28;20552;-75